createdAt,value
2018-07-06T00:02:13.421Z,18.40
2018-07-06T00:04:57.145Z,18.36
2018-07-06T00:07:40.788Z,18.45
2018-07-06T00:10:24.375Z,18.37
2018-07-06T00:13:08.157Z,18.38
2018-07-06T00:15:51.798Z,18.41
2018-07-06T00:18:36.217Z,18.44
2018-07-06T00:21:19.862Z,18.40
2018-07-06T00:24:03.563Z,18.39
2018-07-06T00:26:47.205Z,18.44
2018-07-06T00:29:30.692Z,18.44
2018-07-06T00:32:14.375Z,18.47
2018-07-06T00:34:57.973Z,18.43
2018-07-06T00:37:41.612Z,18.41
2018-07-06T00:40:25.108Z,18.41
2018-07-06T00:43:08.658Z,18.49
2018-07-06T00:45:52.266Z,18.51
2018-07-06T00:48:35.917Z,18.47
2018-07-06T00:51:19.383Z,18.50
2018-07-06T00:54:02.878Z,18.49
2018-07-06T00:56:46.503Z,18.59
2018-07-06T00:59:30.261Z,18.59
2018-07-06T01:02:13.781Z,18.58
2018-07-06T01:04:57.491Z,18.54
2018-07-06T01:07:40.994Z,18.48
2018-07-06T01:10:24.547Z,18.63
2018-07-06T01:13:08.123Z,18.61
2018-07-06T01:15:51.795Z,18.56
2018-07-06T01:18:35.367Z,18.51
2018-07-06T01:21:18.878Z,18.51
2018-07-06T01:24:02.515Z,18.50
2018-07-06T01:26:46.063Z,18.48
2018-07-06T01:29:29.787Z,18.44
2018-07-06T01:32:13.486Z,18.44
2018-07-06T01:34:57.143Z,18.39
2018-07-06T01:37:40.843Z,18.40
2018-07-06T01:40:24.450Z,18.44
2018-07-06T01:43:08.268Z,18.49
2018-07-06T01:45:51.862Z,18.32
2018-07-06T01:48:35.365Z,18.28
2018-07-06T01:51:19.044Z,18.34
2018-07-06T01:54:02.723Z,18.29
2018-07-06T01:56:46.403Z,18.33
2018-07-06T01:59:30.022Z,18.29
2018-07-06T02:02:13.515Z,18.28
2018-07-06T02:04:57.147Z,18.27
2018-07-06T02:07:40.611Z,18.25
2018-07-06T02:10:24.138Z,18.21
2018-07-06T02:13:07.679Z,18.26
2018-07-06T02:15:51.178Z,18.27
2018-07-06T02:18:34.828Z,18.30
2018-07-06T02:21:18.526Z,18.33
2018-07-06T02:24:02.049Z,18.24
2018-07-06T02:26:45.711Z,18.36
2018-07-06T02:29:29.233Z,18.32
2018-07-06T02:32:12.771Z,18.34
2018-07-06T02:34:56.549Z,18.40
2018-07-06T02:37:40.085Z,18.37
2018-07-06T02:40:23.906Z,18.39
2018-07-06T02:43:07.560Z,18.44
2018-07-06T02:45:51.159Z,18.42
2018-07-06T02:48:34.680Z,18.45
2018-07-06T02:51:18.255Z,18.49
2018-07-06T02:54:01.898Z,18.46
2018-07-06T02:56:45.527Z,18.49
2018-07-06T02:59:29.270Z,18.53
2018-07-06T03:02:13.048Z,18.48
2018-07-06T03:04:56.720Z,18.46
2018-07-06T03:07:40.400Z,18.50
2018-07-06T03:10:24.120Z,18.52
2018-07-06T03:13:08.769Z,18.52
2018-07-06T03:15:52.368Z,18.48
2018-07-06T03:18:36.043Z,18.47
2018-07-06T03:21:19.725Z,18.50
2018-07-06T03:24:03.586Z,18.57
2018-07-06T03:26:47.220Z,18.48
2018-07-06T03:29:30.751Z,18.51
2018-07-06T03:32:14.184Z,18.43
2018-07-06T03:34:57.840Z,18.46
2018-07-06T03:37:41.354Z,18.38
2018-07-06T03:40:24.939Z,18.38
2018-07-06T03:43:08.547Z,18.39
2018-07-06T03:45:52.207Z,18.36
2018-07-06T03:48:35.794Z,18.40
2018-07-06T03:51:19.320Z,18.36
2018-07-06T03:54:02.946Z,18.26
2018-07-06T03:56:46.520Z,18.21
2018-07-06T03:59:30.098Z,18.19
2018-07-06T04:02:14.155Z,18.14
2018-07-06T04:04:57.756Z,18.01
2018-07-06T04:07:41.659Z,17.96
2018-07-06T04:10:25.201Z,17.84
2018-07-06T04:13:08.744Z,17.79
2018-07-06T04:15:52.446Z,17.80
2018-07-06T04:18:36.073Z,17.78
2018-07-06T04:21:19.689Z,17.81
2018-07-06T04:24:03.321Z,17.84
2018-07-06T04:26:46.938Z,17.79
2018-07-06T04:29:30.554Z,17.79
2018-07-06T04:32:13.984Z,17.75
2018-07-06T04:34:57.590Z,17.81
2018-07-06T04:37:41.165Z,17.82
2018-07-06T04:40:24.681Z,17.86
2018-07-06T04:43:08.227Z,17.87
2018-07-06T04:45:51.875Z,17.87
2018-07-06T04:48:35.228Z,17.83
2018-07-06T04:51:18.727Z,17.85
2018-07-06T04:54:02.365Z,17.93
2018-07-06T04:56:45.983Z,17.95
2018-07-06T04:59:29.526Z,17.90
2018-07-06T05:02:12.928Z,17.92
2018-07-06T05:04:56.555Z,17.89
2018-07-06T05:07:40.184Z,17.94
2018-07-06T05:10:23.705Z,18.00
2018-07-06T05:13:07.307Z,17.99
2018-07-06T05:15:50.901Z,17.99
2018-07-06T05:18:34.375Z,17.97
2018-07-06T05:21:18.000Z,17.95
2018-07-06T05:24:01.555Z,17.95
2018-07-06T05:26:45.316Z,17.86
2018-07-06T05:29:29.001Z,17.92
2018-07-06T05:32:12.569Z,17.93
2018-07-06T05:34:56.140Z,17.92
2018-07-06T05:37:39.636Z,17.92
2018-07-06T05:40:23.406Z,17.92
2018-07-06T05:43:08.017Z,17.96
2018-07-06T05:45:51.669Z,17.95
2018-07-06T05:48:35.203Z,17.97
2018-07-06T05:51:18.932Z,17.94
2018-07-06T05:54:02.549Z,17.95
2018-07-06T05:56:46.028Z,17.86
2018-07-06T05:59:29.560Z,17.85
2018-07-06T06:02:13.148Z,17.81
2018-07-06T06:04:56.819Z,17.74
2018-07-06T06:07:29.005Z,17.83
2018-07-06T06:10:01.062Z,17.82
2018-07-06T06:12:33.199Z,17.81
2018-07-06T06:15:05.335Z,17.70
2018-07-06T06:17:37.472Z,17.65
2018-07-06T06:20:13.437Z,17.62
2018-07-06T06:22:45.540Z,17.57
2018-07-06T06:25:17.666Z,17.63
2018-07-06T06:27:49.826Z,17.58
2018-07-06T06:30:21.934Z,17.47
2018-07-06T06:32:54.144Z,17.49
2018-07-06T06:35:26.264Z,17.46
2018-07-06T06:37:58.393Z,17.44
2018-07-06T06:40:30.513Z,17.50
2018-07-06T06:43:02.629Z,17.50
2018-07-06T06:45:34.795Z,17.52
2018-07-06T06:48:06.944Z,17.57
2018-07-06T06:50:39.015Z,17.63
2018-07-06T06:53:12.228Z,17.63
2018-07-06T06:55:44.397Z,17.69
2018-07-06T06:58:16.535Z,17.71
2018-07-06T07:00:48.713Z,17.66
2018-07-06T07:03:20.972Z,17.77
2018-07-06T07:05:53.135Z,17.74
2018-07-06T07:08:25.329Z,17.81
2018-07-06T07:10:57.804Z,17.76
2018-07-06T07:13:30.011Z,17.73
2018-07-06T07:16:02.202Z,17.81
2018-07-06T07:18:34.327Z,17.85
2018-07-06T07:21:07.321Z,17.88
2018-07-06T07:23:39.542Z,17.92
2018-07-06T07:26:11.599Z,17.89
2018-07-06T07:28:43.692Z,17.99
2018-07-06T07:31:15.852Z,17.97
2018-07-06T07:33:48.024Z,18.00
2018-07-06T07:36:20.148Z,17.86
2018-07-06T07:38:52.336Z,17.82
2018-07-06T07:41:24.529Z,17.81
2018-07-06T07:43:56.699Z,17.82
2018-07-06T07:46:28.912Z,17.82
2018-07-06T07:49:00.931Z,17.83
2018-07-06T07:51:55.281Z,17.98
2018-07-06T07:54:28.904Z,18.02
2018-07-06T07:57:01.836Z,18.05
2018-07-06T07:59:33.993Z,18.20
2018-07-06T08:02:06.347Z,18.23
2018-07-06T08:04:38.516Z,18.30
2018-07-06T08:07:10.663Z,18.43
2018-07-06T08:09:42.840Z,18.55
2018-07-06T08:12:15.933Z,18.68
2018-07-06T08:14:48.307Z,18.78
2018-07-06T08:17:20.472Z,18.84
2018-07-06T08:19:52.552Z,18.91
2018-07-06T08:22:24.711Z,18.98
2018-07-06T08:24:56.868Z,19.31
2018-07-06T08:27:28.974Z,19.29
2018-07-06T08:30:01.107Z,19.17
2018-07-06T08:32:33.161Z,18.97
2018-07-06T08:35:16.807Z,19.59
2018-07-06T08:38:02.078Z,19.64
2018-07-06T08:40:34.274Z,19.72
2018-07-06T08:43:06.524Z,19.72
2018-07-06T08:45:38.588Z,19.80
2018-07-06T08:48:10.715Z,19.79
2018-07-06T08:50:42.812Z,19.83
2018-07-06T08:53:14.963Z,19.76
2018-07-06T08:55:47.029Z,19.89
2018-07-06T08:58:19.124Z,19.87
2018-07-06T09:00:51.171Z,19.89
2018-07-06T09:03:23.199Z,20.00
2018-07-06T09:05:55.271Z,20.18
2018-07-06T09:08:27.374Z,20.27
2018-07-06T09:10:59.461Z,20.47
2018-07-06T09:13:31.833Z,20.35
2018-07-06T09:16:04.028Z,20.44
2018-07-06T09:18:36.160Z,20.18
2018-07-06T09:21:08.283Z,20.48
2018-07-06T09:23:40.324Z,20.57
2018-07-06T09:26:12.854Z,20.63
2018-07-06T09:28:51.348Z,20.74
2018-07-06T09:31:23.510Z,20.88
2018-07-06T09:33:55.496Z,20.95
2018-07-06T09:36:27.628Z,20.98
2018-07-06T09:38:59.695Z,21.12
2018-07-06T09:41:31.760Z,21.34
2018-07-06T09:44:04.374Z,21.38
2018-07-06T09:46:37.028Z,21.43
2018-07-06T09:49:09.146Z,21.02
2018-07-06T09:51:41.181Z,21.36
2018-07-06T09:54:13.501Z,21.36
2018-07-06T09:56:45.384Z,21.62
2018-07-06T09:59:17.552Z,21.50
2018-07-06T10:01:49.751Z,21.77
2018-07-06T10:04:23.006Z,22.05
2018-07-06T10:06:55.064Z,22.20
2018-07-06T10:09:27.183Z,22.19
2018-07-06T10:11:59.247Z,22.13
2018-07-06T10:14:31.300Z,21.95
2018-07-06T10:17:03.384Z,21.99
2018-07-06T10:19:35.493Z,22.03
2018-07-06T10:22:07.541Z,22.11
2018-07-06T10:24:39.595Z,22.23
2018-07-06T10:27:11.657Z,21.54
2018-07-06T10:30:19.518Z,21.55
2018-07-06T10:32:51.694Z,21.78
2018-07-06T10:35:23.768Z,21.87
2018-07-06T10:37:55.848Z,22.02
2018-07-06T10:40:27.889Z,22.14
2018-07-06T10:42:59.961Z,22.08
2018-07-06T10:45:32.010Z,22.26
2018-07-06T10:48:04.430Z,22.27
2018-07-06T10:50:36.467Z,22.20
2018-07-06T10:53:08.536Z,22.43
2018-07-06T10:55:40.621Z,22.59
2018-07-06T10:58:12.692Z,22.67
2018-07-06T11:00:44.772Z,22.71
2018-07-06T11:03:16.900Z,23.19
2018-07-06T11:05:49.033Z,22.98
2018-07-06T11:08:21.103Z,23.45
2018-07-06T11:10:53.227Z,22.91
2018-07-06T11:13:25.360Z,23.24
2018-07-06T11:15:57.476Z,22.89
2018-07-06T11:18:29.637Z,23.04
2018-07-06T11:21:01.820Z,22.80
2018-07-06T11:23:33.957Z,23.61
2018-07-06T11:26:06.152Z,23.85
2018-07-06T11:28:38.233Z,23.88
2018-07-06T11:31:10.454Z,24.72
2018-07-06T11:33:42.576Z,24.41
2018-07-06T11:36:14.731Z,24.53
2018-07-06T11:38:47.650Z,24.66
2018-07-06T11:41:19.836Z,24.80
2018-07-06T11:43:51.965Z,24.32
2018-07-06T11:46:24.249Z,24.55
2018-07-06T11:48:56.388Z,24.95
2018-07-06T11:51:28.587Z,25.15
2018-07-06T11:54:00.759Z,25.61
2018-07-06T11:56:32.824Z,25.85
2018-07-06T11:59:04.980Z,26.16
2018-07-06T12:04:08.787Z,25.72
2018-07-06T12:06:40.875Z,25.30
2018-07-06T12:09:13.047Z,25.22
2018-07-06T12:11:45.173Z,26.49
2018-07-06T12:14:17.286Z,26.58
2018-07-06T12:16:49.379Z,26.75
2018-07-06T12:19:21.516Z,26.25
2018-07-06T12:21:53.604Z,24.73
2018-07-06T12:24:25.826Z,24.23
2018-07-06T12:26:58.054Z,24.47
2018-07-06T12:29:30.179Z,25.11
2018-07-06T12:32:02.331Z,26.59
2018-07-06T12:34:34.418Z,28.69
2018-07-06T12:37:06.509Z,29.04
2018-07-06T12:39:38.607Z,26.99
2018-07-06T12:42:10.653Z,24.96
2018-07-06T12:44:43.095Z,24.10
2018-07-06T12:47:15.238Z,23.43
2018-07-06T12:49:47.327Z,23.39
2018-07-06T12:52:19.433Z,23.42
2018-07-06T12:54:51.548Z,22.78
2018-07-06T12:57:23.631Z,22.69
2018-07-06T12:59:55.696Z,22.44
2018-07-06T13:02:27.800Z,22.71
2018-07-06T13:04:59.979Z,22.94
2018-07-06T13:07:32.185Z,22.90
2018-07-06T13:10:04.657Z,22.45
2018-07-06T13:12:36.729Z,22.46
2018-07-06T13:15:08.894Z,22.63
2018-07-06T13:17:40.940Z,22.34
2018-07-06T13:20:13.508Z,22.17
2018-07-06T13:22:45.605Z,22.21
2018-07-06T13:25:17.654Z,22.23
2018-07-06T13:27:49.747Z,22.31
2018-07-06T13:30:21.887Z,22.47
2018-07-06T13:32:54.007Z,22.80
2018-07-06T13:35:26.143Z,22.84
2018-07-06T13:37:58.394Z,23.24
2018-07-06T13:40:30.607Z,23.72
2018-07-06T13:43:02.680Z,23.85
2018-07-06T13:45:34.839Z,24.19
2018-07-06T13:48:06.957Z,24.40
2018-07-06T13:50:39.052Z,24.72
2018-07-06T13:53:11.115Z,24.65
2018-07-06T13:55:43.176Z,24.41
2018-07-06T13:58:15.239Z,24.82
2018-07-06T14:00:47.386Z,24.91
2018-07-06T14:03:19.460Z,24.92
2018-07-06T14:05:51.640Z,25.49
2018-07-06T14:08:23.680Z,25.46
2018-07-06T14:10:55.731Z,24.50
2018-07-06T14:13:27.772Z,24.62
2018-07-06T14:15:59.858Z,25.12
2018-07-06T14:18:31.942Z,25.09
2018-07-06T14:21:04.028Z,24.86
2018-07-06T14:23:36.070Z,24.28
2018-07-06T14:26:08.199Z,24.48
2018-07-06T14:28:40.268Z,24.59
2018-07-06T14:31:12.411Z,24.68
2018-07-06T14:33:44.472Z,24.44
2018-07-06T14:36:16.571Z,24.58
2018-07-06T14:38:48.631Z,24.65
2018-07-06T14:41:20.756Z,23.93
2018-07-06T14:43:52.893Z,24.28
2018-07-06T14:46:25.056Z,24.83
2018-07-06T14:48:57.171Z,25.28
2018-07-06T14:51:29.304Z,25.33
2018-07-06T14:54:01.368Z,25.60
2018-07-06T14:56:33.449Z,25.59
2018-07-06T14:59:05.719Z,25.68
2018-07-06T15:01:37.800Z,26.60
2018-07-06T15:04:09.891Z,28.00
2018-07-06T15:06:42.064Z,28.93
2018-07-06T15:09:14.094Z,28.65
2018-07-06T15:11:46.175Z,29.09
2018-07-06T15:14:18.376Z,27.90
2018-07-06T15:16:50.500Z,28.29
2018-07-06T15:19:22.544Z,27.58
2018-07-06T15:21:54.659Z,27.69
2018-07-06T15:24:26.848Z,26.94
2018-07-06T15:26:58.907Z,26.22
2018-07-06T15:29:30.964Z,26.19
2018-07-06T15:32:03.100Z,26.14
2018-07-06T15:34:35.180Z,26.15
2018-07-06T15:37:07.271Z,26.20
2018-07-06T15:39:39.356Z,27.45
2018-07-06T15:42:11.401Z,29.33
2018-07-06T15:44:43.448Z,30.53
2018-07-06T15:47:15.524Z,31.38
2018-07-06T15:49:47.636Z,30.41
2018-07-06T15:52:19.787Z,28.51
2018-07-06T15:54:51.914Z,28.16
2018-07-06T15:57:24.046Z,27.66
2018-07-06T15:59:56.214Z,27.65
2018-07-06T16:02:28.276Z,26.65
2018-07-06T16:05:00.425Z,26.33
2018-07-06T16:07:32.497Z,26.49
2018-07-06T16:10:04.664Z,26.61
2018-07-06T16:12:37.219Z,26.54
2018-07-06T16:15:09.581Z,26.30
2018-07-06T16:17:42.080Z,26.56
2018-07-06T16:20:14.167Z,26.73
2018-07-06T16:22:46.287Z,26.52
2018-07-06T16:25:18.363Z,26.15
2018-07-06T16:27:50.475Z,25.80
2018-07-06T16:30:22.499Z,25.63
2018-07-06T16:32:54.575Z,25.37
2018-07-06T16:35:26.644Z,25.34
2018-07-06T16:37:58.699Z,25.33
2018-07-06T16:40:30.768Z,25.07
2018-07-06T16:43:02.878Z,24.97
2018-07-06T16:45:35.018Z,24.81
2018-07-06T16:48:07.072Z,24.83
2018-07-06T16:50:39.160Z,24.70
2018-07-06T16:53:11.391Z,24.62
2018-07-06T16:55:43.465Z,24.35
2018-07-06T16:58:15.521Z,24.20
2018-07-06T17:00:47.646Z,23.74
2018-07-06T17:03:19.754Z,23.78
2018-07-06T17:05:51.879Z,23.87
2018-07-06T17:08:23.949Z,23.62
2018-07-06T17:10:56.027Z,23.66
2018-07-06T17:13:28.101Z,23.29
2018-07-06T17:16:00.182Z,23.28
2018-07-06T17:18:32.234Z,23.29
2018-07-06T17:21:05.458Z,23.14
2018-07-06T17:23:37.610Z,23.17
2018-07-06T17:26:09.682Z,23.18
2018-07-06T17:28:42.795Z,23.00
2018-07-06T17:31:14.889Z,23.05
2018-07-06T17:33:46.953Z,22.96
2018-07-06T17:36:19.019Z,22.98
2018-07-06T17:38:51.123Z,22.84
2018-07-06T17:41:23.286Z,22.68
2018-07-06T17:43:55.353Z,22.84
2018-07-06T17:46:27.442Z,22.93
2018-07-06T17:48:59.587Z,22.99
2018-07-06T17:51:31.681Z,23.01
2018-07-06T17:54:03.749Z,23.01
2018-07-06T17:56:35.791Z,23.32
2018-07-06T17:59:07.890Z,23.06
2018-07-06T18:01:40.059Z,23.07
2018-07-06T18:04:12.168Z,22.85
2018-07-06T18:06:44.252Z,22.59
2018-07-06T18:09:16.445Z,22.45
2018-07-06T18:11:48.539Z,22.48
2018-07-06T18:14:20.710Z,22.50
2018-07-06T18:16:52.824Z,22.29
2018-07-06T18:19:24.960Z,22.29
2018-07-06T18:21:57.509Z,22.25
2018-07-06T18:24:29.632Z,22.14
2018-07-06T18:29:59.941Z,21.95
2018-07-06T18:32:32.060Z,21.99
2018-07-06T18:35:04.264Z,21.78
2018-07-06T18:37:36.759Z,21.76
2018-07-06T18:40:08.912Z,21.77
2018-07-06T18:42:40.968Z,21.73
2018-07-06T18:45:13.128Z,21.60
2018-07-06T18:47:45.269Z,21.39
2018-07-06T18:50:17.526Z,21.25
2018-07-06T18:52:49.693Z,21.21
2018-07-06T18:55:21.958Z,21.17
2018-07-06T18:57:54.125Z,21.19
2018-07-06T19:00:26.352Z,21.09
2018-07-06T19:02:58.458Z,20.76
2018-07-06T19:05:31.670Z,20.56
2018-07-06T19:08:03.887Z,20.41
2018-07-06T19:10:36.101Z,20.36
2018-07-06T19:13:08.286Z,20.24
2018-07-06T19:15:40.486Z,20.02
2018-07-06T19:18:12.683Z,19.87
2018-07-06T19:20:44.896Z,19.72
2018-07-06T19:23:17.077Z,19.54
2018-07-06T19:25:49.325Z,19.56
2018-07-06T19:28:21.483Z,19.62
2018-07-06T19:30:54.787Z,19.51
2018-07-06T19:33:26.883Z,19.51
2018-07-06T19:35:59.057Z,19.49
2018-07-06T19:38:31.230Z,19.47
2018-07-06T19:41:03.383Z,19.44
2018-07-06T19:43:35.522Z,19.28
2018-07-06T19:46:07.717Z,19.26
2018-07-06T19:48:39.862Z,19.09
2018-07-06T19:51:12.297Z,19.01
2018-07-06T19:53:44.367Z,18.95
2018-07-06T19:56:16.529Z,18.89
2018-07-06T19:58:48.608Z,18.81
2018-07-06T20:01:20.734Z,18.73
2018-07-06T20:03:52.829Z,18.57
2018-07-06T20:06:24.895Z,18.55
2018-07-06T20:08:56.973Z,18.47
2018-07-06T20:11:29.086Z,18.37
2018-07-06T20:14:01.234Z,18.15
2018-07-06T20:16:33.376Z,18.16
2018-07-06T20:19:05.445Z,18.02
2018-07-06T20:21:37.779Z,17.89
2018-07-06T20:24:09.887Z,17.78
2018-07-06T20:26:42.004Z,17.62
2018-07-06T20:29:14.060Z,17.55
2018-07-06T20:31:46.232Z,17.51
2018-07-06T20:34:18.310Z,17.49
2018-07-06T20:36:50.372Z,17.57
2018-07-06T20:39:22.478Z,17.46
2018-07-06T20:41:56.651Z,17.43
2018-07-06T20:44:28.735Z,17.51
2018-07-06T20:47:00.979Z,17.45
2018-07-06T20:49:33.009Z,17.40
2018-07-06T20:52:05.197Z,17.31
2018-07-06T20:54:37.299Z,17.34
2018-07-06T20:57:09.426Z,17.45
2018-07-06T20:59:41.499Z,17.44
2018-07-06T21:02:13.819Z,17.61
2018-07-06T21:04:45.955Z,17.70
2018-07-06T21:07:18.052Z,17.66
2018-07-06T21:09:50.169Z,17.57
2018-07-06T21:12:22.253Z,17.55
2018-07-06T21:14:54.319Z,17.53
2018-07-06T21:17:26.500Z,17.50
2018-07-06T21:19:58.660Z,17.42
2018-07-06T21:22:30.809Z,17.30
2018-07-06T21:25:02.912Z,17.22
2018-07-06T21:27:35.085Z,17.16
2018-07-06T21:30:07.234Z,17.15
2018-07-06T21:32:39.294Z,17.16
2018-07-06T21:35:11.454Z,17.21
2018-07-06T21:37:43.608Z,17.07
2018-07-06T21:40:15.664Z,17.02
2018-07-06T21:42:47.873Z,16.95
2018-07-06T21:45:20.068Z,16.60
2018-07-06T21:47:52.231Z,16.97
2018-07-06T21:50:24.361Z,16.89
2018-07-06T21:52:56.505Z,16.80
2018-07-06T21:55:28.621Z,16.90
2018-07-06T21:58:00.702Z,16.89
2018-07-06T22:00:37.925Z,16.81
2018-07-06T22:03:10.805Z,16.91
2018-07-06T22:05:42.919Z,16.86
2018-07-06T22:08:16.001Z,16.81
2018-07-06T22:10:48.086Z,16.83
2018-07-06T22:13:20.251Z,16.70
2018-07-06T22:15:52.406Z,16.66
2018-07-06T22:18:24.581Z,16.62
2018-07-06T22:20:56.758Z,16.65
2018-07-06T22:23:28.935Z,16.58
2018-07-06T22:26:01.047Z,16.57
2018-07-06T22:28:33.159Z,16.38
2018-07-06T22:31:05.416Z,16.87
2018-07-06T22:33:37.599Z,16.70
2018-07-06T22:36:09.738Z,16.76
2018-07-06T22:38:41.887Z,16.77
2018-07-06T22:41:13.993Z,16.72
2018-07-06T22:43:46.136Z,16.72
2018-07-06T22:46:18.247Z,16.62
2018-07-06T22:48:50.424Z,16.55
2018-07-06T22:51:22.560Z,16.42
2018-07-06T22:53:54.703Z,16.23
2018-07-06T22:56:26.820Z,16.18
2018-07-06T22:58:58.940Z,16.14
2018-07-06T23:01:31.112Z,15.93
2018-07-06T23:04:03.292Z,15.79
2018-07-06T23:06:35.534Z,15.72
2018-07-06T23:09:07.905Z,15.81
2018-07-06T23:11:39.956Z,15.69
2018-07-06T23:14:12.077Z,15.66
2018-07-06T23:16:44.188Z,15.56
2018-07-06T23:19:16.329Z,15.46
2018-07-06T23:21:48.457Z,15.53
2018-07-06T23:24:20.530Z,15.49
2018-07-06T23:26:52.678Z,15.48
2018-07-06T23:29:24.819Z,15.45
2018-07-06T23:31:56.888Z,15.44
2018-07-06T23:34:28.982Z,15.40
2018-07-06T23:37:01.081Z,15.35
2018-07-06T23:39:33.489Z,15.36
2018-07-06T23:42:05.810Z,15.29
2018-07-06T23:44:38.823Z,15.17
2018-07-06T23:47:11.255Z,15.13
2018-07-06T23:49:43.423Z,15.25
2018-07-06T23:52:15.886Z,15.28
2018-07-06T23:54:48.427Z,15.13
2018-07-06T23:57:20.796Z,15.07
2018-07-06T23:59:53.567Z,15.03
